Bluffs, Illinois
Current Conditions -  °F | °C
As of 3:55 AM on Saturday 29 Nov 2014 (Local Time) from KPPQ Reporting Station
Clear Clear  
Wind Chill:   Ceiling: Unl
Heat Index:   Visibility: 10mi
Dew Point:   Wind: 9mph
Humidity: 77%   Direction: 170°S
Pressure: 29.75"   Gusts: NA
Location:  39.75°N, 90.54°W
Report Text: KPPQ 290955Z AUTO 17008KT 10SM CLR 06/02 A2975 RMK AO2 T00580020 PWINO
Loading
Personal Weather Stations






























Interactive Weather Map New forecast layout! Learn more

10-Day Weather Forecast

Advertisements
Track Severe Weather on mobile